LTBL/IGI METAR and TAF weather

Enter ICAO airport designator
Station Type Date Time Source
LTBL METAR 2022/08/16 18:50 UTC NOAA

LTBL 161850Z 34002KT CAVOK 25/17 Q1011 NOSIG RMK RWY17 01004KT


Station Type Date Time Source
LTBL Decoded METAR 2022/08/16 18:50 UTC NOAA

Izmir / Cigli, Turkey (LTBL) 38-30N 027-01E 5M
Aug 16, 2022 - 02:50 PM EDT / 2022.08.16 1850 UTC
Wind: from the NNW (340 degrees) at 2 MPH (2 KT):0
Visibility: greater than 7 mile(s):0
Temperature: 77 F (25 C)
Dew Point: 62 F (17 C)
Relative Humidity: 61%
Pressure (altimeter): 29.85 in. Hg (1011 hPa)
ob: LTBL 161850Z 34002KT CAVOK 25/17 Q1011 NOSIG RMK RWY17 01004KT
cycle: 19

Station Type Date Time Source
LTBL TAF UTC NOAA

Error!

Example: see airport list